createdAt,value
2023-05-02T00:00:11.558Z,74.37
2023-05-02T00:02:39.948Z,73.90
2023-05-02T00:05:09.010Z,74.06
2023-05-02T00:07:38.627Z,73.54
2023-05-02T00:10:08.885Z,73.50
2023-05-02T00:12:36.697Z,73.34
2023-05-02T00:15:05.300Z,73.11
2023-05-02T00:17:33.686Z,72.46
2023-05-02T00:20:01.745Z,72.44
2023-05-02T00:22:30.096Z,73.17
2023-05-02T00:24:58.646Z,72.95
2023-05-02T00:27:29.119Z,72.98
2023-05-02T00:29:57.658Z,72.99
2023-05-02T00:32:26.053Z,72.75
2023-05-02T00:34:53.912Z,72.10
2023-05-02T00:37:21.670Z,71.88
2023-05-02T00:39:52.227Z,72.46
2023-05-02T00:42:19.870Z,72.20
2023-05-02T00:44:49.634Z,71.70
2023-05-02T00:47:17.341Z,72.33
2023-05-02T00:49:46.065Z,73.39
2023-05-02T00:52:14.085Z,71.63
2023-05-02T00:54:42.427Z,69.86
2023-05-02T00:57:10.177Z,69.16
2023-05-02T00:59:38.920Z,64.56
2023-05-02T01:02:19.743Z,63.62
2023-05-02T01:04:57.641Z,61.96
2023-05-02T01:07:41.587Z,56.74
2023-05-02T01:10:21.625Z,55.61
2023-05-02T01:12:57.547Z,55.29
2023-05-02T01:15:26.714Z,54.34
2023-05-02T01:17:57.217Z,53.45
2023-05-02T01:20:27.397Z,52.75
2023-05-02T01:22:59.440Z,53.50
2023-05-02T01:25:32.905Z,53.24
2023-05-02T01:28:11.499Z,52.65
2023-05-02T01:30:45.205Z,52.14
2023-05-02T01:33:16.966Z,52.24
2023-05-02T01:35:49.092Z,52.34
2023-05-02T01:38:19.054Z,52.13
2023-05-02T01:40:48.991Z,52.47
2023-05-02T01:43:18.659Z,52.80
2023-05-02T01:45:51.006Z,52.41
2023-05-02T01:48:20.867Z,53.03
2023-05-02T01:50:50.311Z,53.20
2023-05-02T01:53:18.709Z,53.18
2023-05-02T01:55:47.825Z,52.93
2023-05-02T01:58:19.087Z,52.66
2023-05-02T02:00:49.199Z,53.22
2023-05-02T02:03:19.301Z,53.77
2023-05-02T02:05:50.313Z,54.13
2023-05-02T02:08:18.526Z,53.82
2023-05-02T02:10:51.413Z,53.70
2023-05-02T02:13:21.221Z,53.93
2023-05-02T02:15:54.715Z,54.63
2023-05-02T02:18:26.428Z,54.49
2023-05-02T02:20:58.186Z,55.00
2023-05-02T02:23:29.557Z,55.16
2023-05-02T02:25:58.612Z,54.84
2023-05-02T02:28:26.438Z,55.51
2023-05-02T02:30:56.319Z,55.96
2023-05-02T02:33:30.575Z,55.58
2023-05-02T02:36:04.598Z,56.21
2023-05-02T02:38:42.879Z,55.69
2023-05-02T02:41:17.209Z,55.88
2023-05-02T02:43:54.753Z,55.52
2023-05-02T02:46:36.218Z,56.27
2023-05-02T02:49:16.255Z,56.69
2023-05-02T02:51:48.418Z,56.50
2023-05-02T02:54:30.528Z,56.60
2023-05-02T02:57:06.808Z,56.81
2023-05-02T02:59:36.711Z,57.00
2023-05-02T03:02:09.558Z,57.21
2023-05-02T03:04:40.335Z,57.27
2023-05-02T03:07:08.510Z,57.45
2023-05-02T03:09:43.236Z,57.99
2023-05-02T03:12:11.716Z,58.48
2023-05-02T03:14:40.323Z,58.07
2023-05-02T03:17:09.370Z,57.30
2023-05-02T03:19:38.400Z,57.66
2023-05-02T03:22:06.943Z,57.75
2023-05-02T03:24:34.613Z,58.14
2023-05-02T03:27:03.361Z,58.95
2023-05-02T03:29:31.236Z,58.90
2023-05-02T03:31:59.436Z,58.37
2023-05-02T03:34:28.596Z,58.70
2023-05-02T03:36:57.400Z,58.47
2023-05-02T03:39:25.622Z,59.26
2023-05-02T03:41:53.774Z,58.91
2023-05-02T03:44:21.870Z,59.93
2023-05-02T03:46:49.991Z,60.10
2023-05-02T03:49:19.491Z,59.72
2023-05-02T03:51:49.263Z,60.08
2023-05-02T03:54:16.866Z,59.99
2023-05-02T03:56:46.154Z,60.41
2023-05-02T03:59:14.473Z,60.16
2023-05-02T04:01:42.320Z,60.35
2023-05-02T04:04:11.696Z,59.93
2023-05-02T04:06:40.341Z,59.96
2023-05-02T04:09:09.720Z,60.23
2023-05-02T04:11:37.423Z,60.51
2023-05-02T04:14:05.681Z,60.96
2023-05-02T04:16:36.483Z,61.01
2023-05-02T04:19:05.455Z,61.37
2023-05-02T04:21:33.129Z,61.54
2023-05-02T04:24:01.220Z,61.55
2023-05-02T04:26:30.635Z,61.93
2023-05-02T04:28:58.327Z,62.11
2023-05-02T04:31:27.233Z,61.74
2023-05-02T04:33:55.068Z,61.97
2023-05-02T04:36:23.238Z,62.69
2023-05-02T04:38:50.937Z,62.88
2023-05-02T04:41:19.825Z,62.77
2023-05-02T04:43:48.897Z,62.85
2023-05-02T04:46:17.762Z,63.07
2023-05-02T04:48:46.046Z,63.27
2023-05-02T04:51:16.261Z,63.32
2023-05-02T04:53:45.161Z,63.59
2023-05-02T04:56:12.811Z,63.37
2023-05-02T04:58:41.471Z,62.99
2023-05-02T05:01:10.571Z,63.97
2023-05-02T05:03:38.518Z,64.22
2023-05-02T05:06:06.814Z,64.26
2023-05-02T05:08:34.570Z,64.18
2023-05-02T05:11:04.291Z,63.90
2023-05-02T05:13:31.987Z,63.82
2023-05-02T05:16:00.113Z,63.47
2023-05-02T05:18:29.211Z,63.76
2023-05-02T05:20:57.429Z,63.31
2023-05-02T05:23:25.639Z,62.55
2023-05-02T05:25:53.326Z,63.51
2023-05-02T05:28:21.318Z,63.58
2023-05-02T05:30:49.038Z,64.18
2023-05-02T05:33:17.404Z,64.56
2023-05-02T05:35:46.531Z,64.02
2023-05-02T05:38:15.364Z,63.87
2023-05-02T05:40:43.056Z,63.85
2023-05-02T05:43:11.205Z,64.13
2023-05-02T05:45:38.944Z,63.79
2023-05-02T05:48:07.568Z,64.03
2023-05-02T05:50:36.002Z,64.34
2023-05-02T05:53:04.994Z,64.98
2023-05-02T05:55:32.740Z,64.84
2023-05-02T05:58:01.677Z,64.61
2023-05-02T06:00:29.883Z,64.38
2023-05-02T06:02:57.795Z,64.49
2023-05-02T06:05:26.091Z,64.95
2023-05-02T06:07:53.781Z,65.29
2023-05-02T06:10:23.152Z,65.46
2023-05-02T06:12:51.031Z,66.21
2023-05-02T06:15:19.510Z,66.11
2023-05-02T06:17:47.204Z,66.58
2023-05-02T06:20:16.665Z,65.99
2023-05-02T06:22:46.139Z,66.46
2023-05-02T06:25:13.786Z,66.44
2023-05-02T06:27:43.024Z,66.36
2023-05-02T06:30:11.167Z,65.90
2023-05-02T06:32:39.073Z,66.18
2023-05-02T06:35:07.546Z,66.51
2023-05-02T06:37:35.962Z,67.31
2023-05-02T06:40:05.183Z,66.81
2023-05-02T06:42:32.874Z,66.89
2023-05-02T06:45:01.950Z,67.10
2023-05-02T06:47:30.062Z,67.11
2023-05-02T06:49:57.881Z,67.56
2023-05-02T06:52:26.021Z,67.37
2023-05-02T06:54:53.662Z,67.59
2023-05-02T06:57:21.383Z,68.12
2023-05-02T06:59:50.230Z,68.50
2023-05-02T07:02:19.795Z,68.97
2023-05-02T07:04:47.530Z,69.08
2023-05-02T07:07:19.302Z,68.54
2023-05-02T07:09:47.111Z,68.66
2023-05-02T07:12:15.332Z,68.52
2023-05-02T07:14:43.299Z,68.66
2023-05-02T07:17:11.459Z,67.61
2023-05-02T07:19:41.380Z,68.35
2023-05-02T07:22:10.397Z,69.20
2023-05-02T07:24:41.284Z,69.54
2023-05-02T07:27:09.772Z,68.89
2023-05-02T07:29:38.155Z,68.60
2023-05-02T07:32:06.420Z,69.01
2023-05-02T07:34:34.574Z,69.16
2023-05-02T07:37:03.516Z,68.87
2023-05-02T07:39:32.402Z,68.79
2023-05-02T07:42:00.492Z,68.00
2023-05-02T07:44:28.604Z,68.88
2023-05-02T07:46:56.471Z,68.58
2023-05-02T07:49:24.767Z,68.60
2023-05-02T07:51:52.398Z,68.58
2023-05-02T07:54:23.453Z,66.73
2023-05-02T07:56:51.216Z,67.43
2023-05-02T07:59:19.959Z,68.71
2023-05-02T08:01:47.740Z,68.53
2023-05-02T08:04:16.389Z,69.38
2023-05-02T08:06:45.534Z,69.90
2023-05-02T08:09:13.928Z,69.98
2023-05-02T08:11:43.468Z,69.70
2023-05-02T08:14:11.564Z,68.68
2023-05-02T08:16:39.277Z,67.71
2023-05-02T08:19:08.152Z,68.75
2023-05-02T08:21:36.440Z,68.16
2023-05-02T08:24:04.710Z,68.96
2023-05-02T08:26:32.310Z,70.07
2023-05-02T08:29:01.986Z,70.91
2023-05-02T08:31:29.661Z,69.16
2023-05-02T08:33:57.778Z,69.17
2023-05-02T08:36:26.105Z,67.69
2023-05-02T08:38:53.773Z,68.31
2023-05-02T08:41:22.190Z,67.82
2023-05-02T08:43:50.330Z,66.79
2023-05-02T08:46:19.482Z,67.80
2023-05-02T08:48:49.340Z,68.20
2023-05-02T08:53:48.422Z,67.56
2023-05-02T08:56:16.111Z,67.50
2023-05-02T08:58:43.772Z,68.19
2023-05-02T09:01:15.670Z,67.99
2023-05-02T09:03:46.700Z,68.59
2023-05-02T09:06:17.147Z,70.17
2023-05-02T09:08:45.599Z,69.25
2023-05-02T09:11:14.342Z,69.68
2023-05-02T09:13:43.670Z,70.32
2023-05-02T09:16:12.546Z,69.02
2023-05-02T09:18:41.889Z,70.61
2023-05-02T09:21:12.981Z,70.81
2023-05-02T09:23:42.730Z,70.66
2023-05-02T09:26:18.732Z,69.42
2023-05-02T09:28:48.000Z,69.75
2023-05-02T09:31:26.794Z,70.36
2023-05-02T09:34:10.040Z,69.31
2023-05-02T09:36:43.080Z,69.48
2023-05-02T09:39:13.388Z,69.94
2023-05-02T09:41:41.695Z,70.89
2023-05-02T09:44:12.990Z,70.20
2023-05-02T09:46:41.895Z,70.16
2023-05-02T09:49:10.164Z,68.85
2023-05-02T09:51:38.331Z,70.25
2023-05-02T09:54:08.167Z,70.24
2023-05-02T09:56:53.083Z,70.13
2023-05-02T09:59:21.210Z,70.04
2023-05-02T10:01:56.982Z,70.38
2023-05-02T10:04:27.335Z,72.13
2023-05-02T10:06:56.270Z,71.48
2023-05-02T10:09:27.888Z,70.38
2023-05-02T10:11:57.838Z,70.53
2023-05-02T10:14:29.734Z,72.07
2023-05-02T10:17:02.501Z,72.52
2023-05-02T10:19:35.651Z,70.96
2023-05-02T10:22:04.802Z,70.92
2023-05-02T10:24:35.108Z,69.60
2023-05-02T10:27:05.930Z,68.80
2023-05-02T10:29:34.812Z,69.63
2023-05-02T10:32:06.056Z,70.82
2023-05-02T10:34:34.436Z,70.87
2023-05-02T10:37:02.906Z,69.30
2023-05-02T10:39:31.343Z,69.74
2023-05-02T10:42:03.284Z,70.69
2023-05-02T10:44:35.282Z,70.90
2023-05-02T10:47:19.176Z,70.28
2023-05-02T10:49:54.338Z,72.35
2023-05-02T10:52:30.475Z,72.21
2023-05-02T10:55:17.807Z,71.39
2023-05-02T10:58:28.311Z,72.18
2023-05-02T11:01:43.186Z,71.39
2023-05-02T11:04:11.892Z,70.63
2023-05-02T11:07:14.795Z,72.71
2023-05-02T11:09:42.519Z,72.93
2023-05-02T11:12:10.602Z,71.93
2023-05-02T11:14:49.601Z,72.06
2023-05-02T11:17:21.841Z,72.38
2023-05-02T11:20:29.130Z,72.26
2023-05-02T11:22:58.980Z,72.02
2023-05-02T11:25:34.144Z,71.36
2023-05-02T11:28:02.727Z,70.05
2023-05-02T11:30:41.614Z,70.78
2023-05-02T11:33:17.767Z,71.75
2023-05-02T11:35:47.162Z,69.80
2023-05-02T11:38:17.146Z,70.88
2023-05-02T11:43:39.671Z,70.52
2023-05-02T11:46:07.854Z,70.12
2023-05-02T11:48:37.024Z,69.47
2023-05-02T11:51:07.420Z,69.24
2023-05-02T11:53:35.067Z,67.68
2023-05-02T11:56:04.928Z,66.18
2023-05-02T11:58:34.133Z,63.92
2023-05-02T12:01:15.455Z,63.93
2023-05-02T12:03:45.581Z,64.01
2023-05-02T12:06:15.946Z,64.45
2023-05-02T12:08:45.482Z,64.05
2023-05-02T12:11:15.362Z,62.32
2023-05-02T12:13:47.637Z,63.15
2023-05-02T12:16:15.784Z,61.26
2023-05-02T12:18:46.340Z,62.40
2023-05-02T12:21:14.279Z,61.98
2023-05-02T12:23:43.292Z,63.48
2023-05-02T12:26:21.899Z,62.32
2023-05-02T12:28:52.521Z,61.74
2023-05-02T12:31:20.749Z,61.96
2023-05-02T12:33:52.346Z,61.60
2023-05-02T12:36:20.934Z,64.19
2023-05-02T12:38:53.806Z,60.79
2023-05-02T12:41:33.436Z,61.71
2023-05-02T12:44:02.008Z,63.20
2023-05-02T12:46:30.067Z,61.83
2023-05-02T12:49:07.062Z,62.10
2023-05-02T12:51:35.049Z,62.20
2023-05-02T12:54:03.002Z,60.57
2023-05-02T12:56:32.997Z,60.79
2023-05-02T12:59:04.840Z,59.26
2023-05-02T13:01:35.809Z,60.83
2023-05-02T13:04:05.709Z,61.33
2023-05-02T13:06:34.030Z,58.85
2023-05-02T13:09:02.156Z,59.04
2023-05-02T13:11:29.829Z,59.79
2023-05-02T13:13:57.842Z,57.90
2023-05-02T13:16:25.933Z,55.56
2023-05-02T13:18:53.878Z,55.42
2023-05-02T13:21:23.987Z,57.40
2023-05-02T13:23:52.227Z,58.46
2023-05-02T13:26:20.277Z,55.97
2023-05-02T13:28:48.372Z,55.32
2023-05-02T13:31:16.123Z,56.14
2023-05-02T13:33:44.236Z,55.75
2023-05-02T13:36:11.876Z,53.74
2023-05-02T13:38:41.013Z,53.18
2023-05-02T13:41:09.349Z,54.08
2023-05-02T13:43:37.170Z,54.77
2023-05-02T13:46:05.000Z,55.86
2023-05-02T13:48:33.770Z,52.80
2023-05-02T13:51:02.074Z,54.25
2023-05-02T13:53:30.303Z,52.36
2023-05-02T13:55:59.329Z,52.38
2023-05-02T13:58:26.927Z,53.04
2023-05-02T14:00:55.017Z,51.61
2023-05-02T14:03:22.720Z,51.33
2023-05-02T14:05:50.389Z,50.90
2023-05-02T14:08:20.266Z,52.25
2023-05-02T14:10:47.914Z,51.48
2023-05-02T14:13:16.935Z,50.72
2023-05-02T14:15:44.984Z,52.09
2023-05-02T14:18:12.747Z,53.49
2023-05-02T14:20:40.725Z,53.56
2023-05-02T14:23:08.403Z,53.25
2023-05-02T14:25:36.783Z,52.18
2023-05-02T14:28:06.674Z,50.48
2023-05-02T14:30:35.884Z,51.80
2023-05-02T14:33:03.626Z,52.06
2023-05-02T14:35:31.775Z,52.57
2023-05-02T14:37:59.457Z,50.53
2023-05-02T14:40:27.391Z,52.32
2023-05-02T14:42:56.105Z,52.10
2023-05-02T14:45:23.785Z,52.30
2023-05-02T14:47:53.476Z,52.39
2023-05-02T14:50:21.591Z,49.59
2023-05-02T14:52:49.305Z,51.71
2023-05-02T14:55:17.482Z,52.00
2023-05-02T14:57:45.698Z,52.12
2023-05-02T15:00:14.651Z,51.40
2023-05-02T15:02:43.541Z,52.02
2023-05-02T15:05:13.054Z,52.96
2023-05-02T15:07:41.168Z,52.58
2023-05-02T15:10:10.311Z,52.16
2023-05-02T15:12:38.451Z,51.73
2023-05-02T15:15:08.985Z,53.11
2023-05-02T15:17:36.715Z,53.10
2023-05-02T15:20:05.491Z,52.68
2023-05-02T15:22:35.861Z,52.23
2023-05-02T15:25:05.367Z,52.95
2023-05-02T15:27:33.285Z,53.28
2023-05-02T15:30:03.589Z,52.76
2023-05-02T15:32:31.341Z,51.94
2023-05-02T15:34:59.091Z,53.06
2023-05-02T15:37:27.211Z,53.66
2023-05-02T15:39:56.348Z,53.63
2023-05-02T15:42:24.996Z,53.73
2023-05-02T15:44:53.909Z,53.21
2023-05-02T15:47:22.610Z,53.08
2023-05-02T15:49:53.704Z,52.55
2023-05-02T15:52:22.756Z,51.81
2023-05-02T15:54:51.506Z,49.72
2023-05-02T15:57:21.150Z,51.43
2023-05-02T15:59:49.236Z,51.38
2023-05-02T16:02:16.931Z,51.42
2023-05-02T16:04:44.606Z,51.35
2023-05-02T16:07:14.326Z,51.65
2023-05-02T16:09:42.509Z,52.08
2023-05-02T16:12:10.647Z,52.56
2023-05-02T16:14:40.044Z,50.51
2023-05-02T16:17:07.754Z,51.90
2023-05-02T16:19:35.403Z,51.97
2023-05-02T16:22:03.532Z,52.11
2023-05-02T16:24:31.161Z,51.07
2023-05-02T16:26:58.938Z,50.36
2023-05-02T16:29:27.850Z,51.58
2023-05-02T16:31:57.031Z,50.50
2023-05-02T16:34:24.924Z,50.95
2023-05-02T16:36:53.407Z,52.17
2023-05-02T16:39:20.991Z,52.65
2023-05-02T16:41:49.292Z,52.17
2023-05-02T16:44:18.053Z,51.81
2023-05-02T16:46:46.142Z,50.65
2023-05-02T16:49:15.848Z,50.25
2023-05-02T16:51:43.519Z,52.35
2023-05-02T16:54:11.688Z,52.35
2023-05-02T16:56:41.327Z,52.60
2023-05-02T16:59:10.241Z,52.05
2023-05-02T17:01:38.047Z,52.25
2023-05-02T17:04:06.470Z,52.71
2023-05-02T17:06:35.620Z,51.85
2023-05-02T17:09:04.094Z,51.73
2023-05-02T17:11:31.794Z,51.79
2023-05-02T17:13:59.920Z,52.30
2023-05-02T17:16:27.595Z,53.74
2023-05-02T17:18:55.691Z,53.27
2023-05-02T17:21:23.525Z,53.55
2023-05-02T17:23:53.660Z,53.80
2023-05-02T17:26:22.063Z,53.06
2023-05-02T17:28:53.754Z,53.95
2023-05-02T17:31:22.000Z,52.84
2023-05-02T17:33:49.896Z,55.40
2023-05-02T17:36:18.068Z,54.04
2023-05-02T17:38:45.795Z,53.67
2023-05-02T17:41:15.751Z,53.02
2023-05-02T17:43:43.534Z,53.43
2023-05-02T17:46:12.637Z,54.07
2023-05-02T17:48:43.815Z,53.87
2023-05-02T17:51:11.753Z,54.42
2023-05-02T17:53:39.908Z,54.53
2023-05-02T17:56:08.155Z,54.99
2023-05-02T17:58:37.901Z,55.82
2023-05-02T18:01:09.530Z,56.00
2023-05-02T18:03:37.567Z,56.86
2023-05-02T18:06:06.574Z,58.70
2023-05-02T18:08:34.858Z,58.74
2023-05-02T18:11:03.210Z,58.58
2023-05-02T18:13:31.533Z,59.12
2023-05-02T18:16:01.903Z,59.50
2023-05-02T18:18:29.982Z,59.59
2023-05-02T18:20:57.649Z,60.08
2023-05-02T18:23:25.387Z,60.70
2023-05-02T18:25:54.248Z,61.90
2023-05-02T18:28:21.964Z,62.12
2023-05-02T18:30:49.659Z,61.30
2023-05-02T18:33:19.231Z,62.57
2023-05-02T18:35:47.931Z,60.97
2023-05-02T18:38:16.113Z,60.18
2023-05-02T18:40:44.381Z,58.83
2023-05-02T18:43:12.051Z,58.62
2023-05-02T18:48:27.785Z,59.11
2023-05-02T18:50:57.029Z,59.90
2023-05-02T18:53:26.413Z,61.21
2023-05-02T18:55:54.379Z,62.10
2023-05-02T18:58:22.907Z,62.00
2023-05-02T19:00:50.995Z,61.68
2023-05-02T19:03:18.991Z,61.24
2023-05-02T19:05:51.202Z,59.90
2023-05-02T19:08:19.026Z,59.68
2023-05-02T19:10:46.691Z,59.50
2023-05-02T19:13:14.917Z,59.49
2023-05-02T19:15:43.101Z,59.71
2023-05-02T19:18:10.832Z,59.89
2023-05-02T19:20:39.091Z,60.21
2023-05-02T19:23:19.785Z,58.61
2023-05-02T19:25:49.661Z,56.79
2023-05-02T19:28:17.321Z,57.03
2023-05-02T19:30:45.498Z,56.79
2023-05-02T19:33:13.813Z,57.05
2023-05-02T19:35:41.599Z,57.49
2023-05-02T19:38:10.641Z,57.40
2023-05-02T19:40:38.716Z,57.59
2023-05-02T19:43:06.355Z,57.98
2023-05-02T19:45:34.094Z,57.15
2023-05-02T19:48:02.943Z,57.76
2023-05-02T19:50:30.609Z,57.33
2023-05-02T19:52:58.621Z,57.48
2023-05-02T19:55:27.665Z,57.39
2023-05-02T19:57:55.304Z,58.13
2023-05-02T20:00:23.541Z,58.82
2023-05-02T20:02:51.741Z,60.62
2023-05-02T20:05:19.730Z,60.67
2023-05-02T20:07:48.216Z,58.63
2023-05-02T20:10:18.219Z,57.96
2023-05-02T20:12:47.688Z,57.97
2023-05-02T20:15:16.673Z,57.28
2023-05-02T20:17:44.453Z,55.87
2023-05-02T20:20:13.666Z,55.08
2023-05-02T20:22:41.374Z,55.72
2023-05-02T20:25:11.443Z,54.65
2023-05-02T20:27:40.549Z,54.18
2023-05-02T20:30:10.482Z,54.73
2023-05-02T20:32:38.245Z,54.47
2023-05-02T20:35:06.815Z,54.54
2023-05-02T20:37:34.553Z,54.83
2023-05-02T20:40:02.740Z,54.53
2023-05-02T20:42:30.564Z,54.69
2023-05-02T20:45:00.592Z,54.17
2023-05-02T20:47:31.321Z,54.26
2023-05-02T20:49:59.041Z,53.82
2023-05-02T20:52:27.189Z,53.86
2023-05-02T20:54:55.462Z,54.40
2023-05-02T20:57:24.584Z,53.24
2023-05-02T20:59:52.273Z,53.30
2023-05-02T21:02:19.991Z,52.84
2023-05-02T21:04:49.316Z,52.85
2023-05-02T21:07:16.974Z,53.31
2023-05-02T21:09:45.729Z,53.15
2023-05-02T21:12:13.923Z,52.51
2023-05-02T21:14:41.606Z,52.26
2023-05-02T21:17:09.717Z,52.94
2023-05-02T21:19:37.660Z,53.35
2023-05-02T21:22:07.099Z,53.33
2023-05-02T21:24:35.092Z,53.71
2023-05-02T21:27:02.954Z,53.70
2023-05-02T21:29:31.605Z,54.65
2023-05-02T21:31:59.258Z,54.22
2023-05-02T21:34:27.433Z,54.07
2023-05-02T21:36:55.087Z,54.34
2023-05-02T21:39:24.154Z,54.29
2023-05-02T21:41:52.179Z,53.35
2023-05-02T21:44:19.826Z,54.45
2023-05-02T21:46:48.163Z,54.68
2023-05-02T21:49:16.699Z,54.53
2023-05-02T21:51:44.992Z,54.87
2023-05-02T21:54:12.631Z,54.85
2023-05-02T21:56:41.643Z,54.69
2023-05-02T21:59:09.758Z,54.64
2023-05-02T22:01:37.380Z,55.05
2023-05-02T22:04:05.388Z,55.40
2023-05-02T22:06:34.656Z,55.48
2023-05-02T22:09:02.367Z,55.42
2023-05-02T22:11:31.844Z,55.07
2023-05-02T22:14:00.851Z,55.16
2023-05-02T22:16:28.573Z,55.58
2023-05-02T22:18:58.127Z,55.47
2023-05-02T22:21:25.925Z,56.04
2023-05-02T22:23:53.998Z,56.22
2023-05-02T22:26:22.738Z,56.21
2023-05-02T22:28:50.816Z,55.37
2023-05-02T22:31:21.423Z,55.17
2023-05-02T22:33:49.898Z,55.17
2023-05-02T22:36:18.596Z,55.33
2023-05-02T22:38:46.734Z,55.15
2023-05-02T22:41:14.450Z,54.96
2023-05-02T22:43:42.509Z,54.29
2023-05-02T22:46:10.230Z,54.46
2023-05-02T22:48:40.349Z,54.55
2023-05-02T22:51:08.134Z,55.27
2023-05-02T22:53:36.296Z,55.36
2023-05-02T22:56:04.732Z,55.96
2023-05-02T22:58:32.643Z,54.84
2023-05-02T23:01:00.662Z,54.93
2023-05-02T23:03:28.436Z,55.42
2023-05-02T23:05:58.680Z,55.57
2023-05-02T23:08:26.419Z,55.77
2023-05-02T23:10:54.087Z,55.71
2023-05-02T23:13:22.092Z,55.77
2023-05-02T23:15:54.399Z,55.49
2023-05-02T23:18:22.528Z,55.66
2023-05-02T23:20:50.218Z,55.23
2023-05-02T23:23:19.264Z,55.72
2023-05-02T23:25:47.485Z,55.30
2023-05-02T23:28:15.146Z,54.17
2023-05-02T23:30:43.153Z,54.27
2023-05-02T23:33:12.198Z,54.95
2023-05-02T23:35:40.322Z,55.04
2023-05-02T23:38:08.725Z,54.35
2023-05-02T23:40:38.102Z,54.30
2023-05-02T23:43:07.353Z,55.22
2023-05-02T23:45:35.369Z,54.95
2023-05-02T23:48:03.170Z,55.00
2023-05-02T23:50:32.867Z,54.31
2023-05-02T23:53:01.142Z,55.29
2023-05-02T23:55:29.346Z,54.97
2023-05-02T23:57:58.898Z,55.39
